createdAt,value
2018-03-07T00:02:35.363Z,9.70
2018-03-07T00:17:36.083Z,9.03
2018-03-07T00:32:33.623Z,10.00
2018-03-07T00:47:34.037Z,8.80
2018-03-07T01:02:36.684Z,7.67
2018-03-07T01:17:34.448Z,8.37
2018-03-07T01:32:35.268Z,8.47
2018-03-07T01:47:36.816Z,9.67
2018-03-07T02:02:36.804Z,9.23
2018-03-07T02:17:34.621Z,9.13
2018-03-07T02:32:38.045Z,10.47
2018-03-07T02:47:37.920Z,10.00
2018-03-07T03:02:35.377Z,12.07
2018-03-07T03:17:34.871Z,10.40
2018-03-07T03:32:37.144Z,10.23
2018-03-07T03:47:40.258Z,11.87
2018-03-07T04:02:35.039Z,10.43
2018-03-07T04:17:35.102Z,11.13
2018-03-07T04:32:33.666Z,6.20
2018-03-07T04:47:35.249Z,2.00
2018-03-07T05:02:35.258Z,1.87
2018-03-07T05:17:35.158Z,1.87
2018-03-07T05:32:34.125Z,2.07
2018-03-07T05:47:34.498Z,2.90
2018-03-07T06:02:34.974Z,2.00
2018-03-07T06:17:34.413Z,2.00
2018-03-07T06:32:36.775Z,1.60
2018-03-07T06:47:34.571Z,1.90
2018-03-07T07:02:37.251Z,1.30
2018-03-07T07:17:34.679Z,2.17
2018-03-07T07:32:38.061Z,1.20
2018-03-07T07:47:37.511Z,1.70
2018-03-07T08:02:36.875Z,1.40
2018-03-07T08:17:36.330Z,1.30
2018-03-07T08:32:35.179Z,1.50
2018-03-07T08:47:38.119Z,1.60
2018-03-07T09:02:35.208Z,1.57
2018-03-07T09:17:37.317Z,1.30
2018-03-07T09:32:34.406Z,1.40
2018-03-07T09:47:33.695Z,1.40
2018-03-07T10:02:37.836Z,1.47
2018-03-07T10:17:36.105Z,1.27
2018-03-07T10:32:34.505Z,1.57
2018-03-07T10:47:33.826Z,1.63
2018-03-07T11:02:35.839Z,1.20
2018-03-07T11:17:37.219Z,1.43
2018-03-07T11:32:34.639Z,1.10
2018-03-07T11:47:37.739Z,1.67
2018-03-07T12:02:36.177Z,1.43
2018-03-07T12:17:33.478Z,1.33
2018-03-07T12:32:35.163Z,1.50
2018-03-07T12:47:37.520Z,1.50
2018-03-07T13:02:36.494Z,1.43
2018-03-07T13:17:34.182Z,1.50
2018-03-07T13:32:34.972Z,2.90
2018-03-07T13:47:37.023Z,2.17
2018-03-07T14:02:35.134Z,1.57
2018-03-07T14:17:34.840Z,1.83
2018-03-07T14:32:34.176Z,2.10
2018-03-07T14:47:34.672Z,2.20
2018-03-07T15:02:33.785Z,1.70
2018-03-07T15:17:35.109Z,2.17
2018-03-07T15:32:35.083Z,2.13
2018-03-07T15:47:33.850Z,2.97
2018-03-07T16:02:34.045Z,4.27
2018-03-07T16:17:34.457Z,2.13
2018-03-07T16:32:34.298Z,33.90
2018-03-07T16:47:34.223Z,6.50
2018-03-07T17:02:36.219Z,9.27
2018-03-07T17:17:34.514Z,10.33
2018-03-07T17:32:36.947Z,12.20
2018-03-07T17:47:34.933Z,9.67
2018-03-07T18:02:40.014Z,14.77
2018-03-07T18:17:34.833Z,13.30
2018-03-07T18:32:37.061Z,17.83
2018-03-07T18:47:37.112Z,20.93
2018-03-07T19:02:39.986Z,14.43
2018-03-07T19:17:37.187Z,10.17
2018-03-07T19:32:38.409Z,7.97
2018-03-07T20:02:38.114Z,14.90
2018-03-07T20:17:39.949Z,20.00
2018-03-07T20:32:41.265Z,24.40
2018-03-07T20:47:35.923Z,25.77
2018-03-07T21:02:40.999Z,21.13
2018-03-07T21:17:35.357Z,17.50
2018-03-07T21:32:35.575Z,15.53
2018-03-07T21:47:45.867Z,15.07
2018-03-07T22:02:33.888Z,15.63
2018-03-07T22:17:34.846Z,15.23
2018-03-07T22:32:36.967Z,15.50
2018-03-07T22:47:35.075Z,19.10
2018-03-07T23:02:39.190Z,16.93
2018-03-07T23:17:35.485Z,18.90
2018-03-07T23:32:36.425Z,23.37
2018-03-07T23:47:34.944Z,26.40
